Time;durP1;ratioP1;P1;durP2;ratioP2;P2;SDS_P1;SDS_P2;PMS_P1;PMS_P2;Temp;Humidity;BMP_temperature;BMP_pressure;BME280_temperature;BME280_humidity;BME280_pressure;Samples;Min_cycle;Max_cycle;Signal;HPM_P1;HPM_P2
2023/09/01 00:02:13;;;;;;;3.35;1.70;;;16.90;99.90;;;17.11;100.00;100627.09;5282444;28;20035;-53
2023/09/01 00:05:41;;;;;;;3.58;1.75;;;16.90;99.90;;;17.13;100.00;100626.22;5281716;28;20084;-55
2023/09/01 00:08:32;;;;;;;2.85;1.50;;;16.90;99.90;;;17.15;100.00;100628.84;5283534;28;20046;-53
2023/09/01 00:11:41;;;;;;;4.93;1.80;;;16.90;99.90;;;17.14;100.00;100619.19;5281142;28;20221;-56
2023/09/01 00:14:14;;;;;;;5.40;1.52;;;16.90;99.90;;;17.11;100.00;100606.03;5285246;28;20043;-53
2023/09/01 00:16:47;;;;;;;2.50;1.60;;;16.90;99.90;;;17.09;100.00;100609.53;5282024;28;20035;-54
2023/09/01 00:19:23;;;;;;;3.75;1.80;;;16.90;99.90;;;17.05;100.00;100606.88;5283548;28;20062;-52
2023/09/01 00:21:55;;;;;;;4.97;1.83;;;16.80;99.90;;;17.03;100.00;100609.50;5283009;28;20112;-56
2023/09/01 00:24:27;;;;;;;2.85;1.63;;;16.80;99.90;;;17.04;100.00;100610.38;5283248;28;20063;-56
2023/09/01 00:27:00;;;;;;;3.72;1.60;;;16.80;99.90;;;17.05;100.00;100607.75;5284758;28;20039;-52
2023/09/01 00:29:33;;;;;;;3.20;1.50;;;16.80;99.90;;;17.07;100.00;100610.38;5287633;28;20051;-52
2023/09/01 00:32:07;;;;;;;2.83;1.52;;;16.80;99.90;;;17.07;100.00;100610.38;5279153;28;20125;-57
2023/09/01 00:34:40;;;;;;;3.10;1.70;;;16.80;99.90;;;17.07;100.00;100620.91;5287010;28;20047;-55
2023/09/01 00:37:15;;;;;;;4.03;1.65;;;16.80;99.90;;;17.06;100.00;100624.41;5286951;28;20502;-52
2023/09/01 00:39:48;;;;;;;3.63;1.50;;;16.80;99.90;;;17.05;100.00;100626.19;5286841;28;20054;-57
2023/09/01 00:42:20;;;;;;;2.67;1.60;;;16.80;99.90;;;17.04;100.00;100620.91;5287519;28;20043;-54
2023/09/01 00:44:52;;;;;;;4.97;1.50;;;16.80;99.90;;;17.03;100.00;100627.06;5287056;28;20157;-55
2023/09/01 00:47:27;;;;;;;3.35;1.55;;;16.80;99.90;;;17.01;100.00;100611.22;5287177;28;20056;-52
2023/09/01 00:49:59;;;;;;;6.25;2.00;;;16.70;99.90;;;17.00;100.00;100601.56;5286973;28;20048;-56
2023/09/01 00:52:32;;;;;;;2.80;2.05;;;16.70;99.90;;;16.97;100.00;100600.69;5287063;28;20381;-53
2023/09/01 00:55:05;;;;;;;4.30;1.60;;;16.70;99.90;;;16.95;100.00;100599.78;5286849;28;20054;-56
2023/09/01 00:57:38;;;;;;;3.70;1.63;;;16.70;99.90;;;16.94;100.00;100598.00;5286301;28;20036;-53
2023/09/01 01:00:12;;;;;;;6.32;1.88;;;16.70;99.90;;;16.94;100.00;100604.16;5286221;28;20058;-53
2023/09/01 01:02:46;;;;;;;2.45;1.45;;;16.70;99.90;;;16.94;100.00;100601.53;5285297;28;20047;-53
2023/09/01 01:05:31;;;;;;;3.70;1.83;;;16.70;99.90;;;16.96;100.00;100607.72;5286327;28;20504;-55
2023/09/01 01:08:14;;;;;;;2.60;1.90;;;16.70;99.90;;;16.96;100.00;100602.44;5286807;28;20089;-55
2023/09/01 01:10:53;;;;;;;3.75;1.77;;;16.70;99.90;;;16.97;100.00;100604.19;5287034;28;20058;-51
2023/09/01 01:13:30;;;;;;;3.70;1.75;;;16.70;99.90;;;16.94;100.00;100601.53;5286885;28;20044;-53
2023/09/01 01:16:04;;;;;;;3.42;1.80;;;16.70;99.90;;;16.94;100.00;100608.53;5285997;28;20100;-52
2023/09/01 01:18:40;;;;;;;3.25;1.63;;;16.70;99.90;;;16.92;100.00;100607.66;5286600;28;20051;-57
2023/09/01 01:21:23;;;;;;;3.72;1.67;;;16.70;99.90;;;16.89;100.00;100595.38;5286802;28;20032;-52
2023/09/01 01:23:57;;;;;;;5.95;2.20;;;16.70;99.90;;;16.87;100.00;100589.19;5286303;28;20074;-52
2023/09/01 01:26:30;;;;;;;4.57;1.70;;;16.70;99.90;;;16.86;100.00;100587.44;5285747;28;20051;-53
2023/09/01 01:29:02;;;;;;;3.85;1.90;;;16.70;99.90;;;16.87;100.00;100591.84;5285560;28;20039;-53
2023/09/01 01:31:35;;;;;;;5.57;1.88;;;16.60;99.90;;;16.86;100.00;100592.72;5286021;28;20135;-53
2023/09/01 01:34:18;;;;;;;3.05;1.55;;;16.60;99.90;;;16.87;100.00;100591.84;5286389;28;20131;-49
2023/09/01 01:36:58;;;;;;;2.38;1.80;;;16.60;99.90;;;16.89;100.00;100597.09;5287115;28;20073;-49
2023/09/01 01:39:35;;;;;;;4.47;2.17;;;16.60;99.90;;;16.90;100.00;100597.13;5279219;28;20055;-48
2023/09/01 01:42:10;;;;;;;3.85;1.80;;;16.70;99.90;;;16.90;100.00;100594.50;5270363;28;20048;-49
2023/09/01 01:44:48;;;;;;;3.45;1.70;;;16.70;99.90;;;16.86;100.00;100583.94;5286999;28;20047;-48
2023/09/01 01:47:23;;;;;;;5.15;1.60;;;16.60;99.90;;;16.85;100.00;100582.19;5272878;28;20067;-48
2023/09/01 01:49:56;;;;;;;3.53;1.88;;;16.60;99.90;;;16.82;100.00;100580.38;5268470;28;20062;-48
2023/09/01 01:59:08;;;;;;;4.45;2.10;;;16.60;99.90;;;16.75;100.00;100586.50;5265872;28;20076;-49
2023/09/01 02:01:41;;;;;;;3.20;2.00;;;16.60;99.90;;;16.76;100.00;100583.91;5291097;27;20116;-49
2023/09/01 02:04:13;;;;;;;4.20;2.47;;;16.60;99.90;;;16.79;100.00;100580.38;5265577;28;20408;-49
2023/09/01 02:06:46;;;;;;;3.65;2.00;;;16.60;99.90;;;16.76;100.00;100577.75;5274657;28;20079;-49
2023/09/01 02:09:18;;;;;;;3.05;1.92;;;16.60;99.90;;;16.73;100.00;100572.44;5286524;28;20522;-48
2023/09/01 02:11:52;;;;;;;3.78;2.00;;;16.50;99.90;;;16.71;100.00;100575.09;5286439;28;20043;-48
2023/09/01 02:14:24;;;;;;;3.08;1.92;;;16.50;99.90;;;16.72;100.00;100576.84;5286536;28;20051;-49
2023/09/01 02:17:00;;;;;;;3.13;2.30;;;16.50;99.90;;;16.70;100.00;100581.22;5275687;28;20047;-50
2023/09/01 02:19:32;;;;;;;6.40;1.90;;;16.50;99.90;;;16.73;100.00;100588.25;5281170;28;20043;-49
2023/09/01 02:22:05;;;;;;;3.20;2.00;;;16.50;99.90;;;16.75;100.00;100586.50;5286173;28;20055;-48
2023/09/01 02:28:25;;;;;;;5.70;2.47;;;16.50;99.90;;;16.77;100.00;100574.25;5266410;28;20139;-49
2023/09/01 02:31:16;;;;;;;3.35;1.80;;;16.50;99.90;;;16.75;100.00;100582.09;5265221;28;20052;-49
2023/09/01 02:33:48;;;;;;;4.47;2.10;;;16.50;99.90;;;16.74;100.00;100595.25;5274406;28;20036;-49
2023/09/01 02:36:28;;;;;;;3.88;1.77;;;16.50;99.90;;;16.71;100.00;100596.13;5286084;28;20043;-48
2023/09/01 02:39:01;;;;;;;2.10;1.60;;;16.50;99.90;;;16.72;100.00;100586.50;5275104;28;20048;-48
2023/09/01 02:41:34;;;;;;;2.70;1.90;;;16.50;99.90;;;16.73;100.00;100582.97;5265358;28;20135;-48
2023/09/01 02:44:08;;;;;;;2.42;1.58;;;16.50;99.90;;;16.76;100.00;100588.28;5264714;28;20117;-48
2023/09/01 02:46:40;;;;;;;5.50;1.77;;;16.60;99.90;;;16.77;100.00;100590.03;5272638;28;20043;-48
2023/09/01 02:49:16;;;;;;;2.10;1.60;;;16.50;99.90;;;16.76;100.00;100594.41;5285682;28;20043;-49
2023/09/01 02:51:48;;;;;;;3.28;1.73;;;16.50;99.90;;;16.78;100.00;100591.78;5286412;28;20047;-50
2023/09/01 02:54:21;;;;;;;5.38;1.85;;;16.50;99.90;;;16.78;100.00;100591.78;5264448;28;20044;-47
2023/09/01 02:56:53;;;;;;;4.65;1.88;;;16.50;99.90;;;16.78;100.00;100584.78;5264394;28;20043;-49
2023/09/01 02:59:30;;;;;;;3.88;2.00;;;16.50;99.90;;;16.76;100.00;100588.28;5264496;28;20055;-49
2023/09/01 03:02:03;;;;;;;2.03;1.42;;;16.50;99.90;;;16.74;100.00;100582.97;5264545;28;20683;-50
2023/09/01 03:04:37;;;;;;;3.22;2.40;;;16.50;99.90;;;16.74;100.00;100576.84;5264531;28;20401;-50
2023/09/01 03:07:09;;;;;;;2.75;1.77;;;16.50;99.90;;;16.72;100.00;100570.69;5264605;28;20557;-48
2023/09/01 03:09:42;;;;;;;4.18;2.00;;;16.50;99.90;;;16.69;100.00;100568.00;5264370;28;20048;-48
2023/09/01 03:12:15;;;;;;;4.82;2.00;;;16.50;99.90;;;16.66;100.00;100560.97;5263983;28;20059;-49
2023/09/01 03:14:48;;;;;;;3.92;2.03;;;16.50;99.90;;;16.66;100.00;100558.34;5281081;28;20426;-50
2023/09/01 03:17:21;;;;;;;4.50;1.73;;;16.40;99.90;;;16.64;100.00;100556.59;5271741;28;20050;-49
2023/09/01 03:19:53;;;;;;;3.00;1.90;;;16.40;99.90;;;16.60;100.00;100554.78;5281822;28;20685;-47
2023/09/01 03:22:26;;;;;;;4.28;1.80;;;16.40;99.90;;;16.58;100.00;100552.16;5284987;28;20060;-48
2023/09/01 03:24:58;;;;;;;3.35;2.15;;;16.40;99.90;;;16.57;100.00;100560.06;5276680;28;20434;-49
2023/09/01 03:27:31;;;;;;;3.28;1.98;;;16.40;99.90;;;16.57;100.00;100558.28;5284928;28;20054;-48
2023/09/01 03:30:07;;;;;;;2.58;1.52;;;16.40;99.90;;;16.59;100.00;100548.66;5285373;28;20254;-48
2023/09/01 03:32:42;;;;;;;3.95;2.00;;;16.40;99.90;;;16.58;100.00;100551.28;5285124;28;20421;-48
2023/09/01 03:35:15;;;;;;;5.25;1.83;;;16.40;99.90;;;16.58;100.00;100553.91;5276391;28;20054;-49
2023/09/01 03:37:47;;;;;;;2.38;1.60;;;16.40;99.90;;;16.55;100.00;100553.00;5267864;28;20067;-48
2023/09/01 03:40:21;;;;;;;4.38;1.83;;;16.40;99.90;;;16.53;100.00;100569.66;5263774;28;20486;-50
2023/09/01 03:42:53;;;;;;;3.40;2.03;;;16.30;99.90;;;16.50;100.00;100564.38;5280281;28;20412;-49
2023/09/01 03:45:28;;;;;;;2.92;1.85;;;16.30;99.90;;;16.47;100.00;100566.97;5277400;28;20036;-48
2023/09/01 03:48:00;;;;;;;4.43;1.90;;;16.30;99.90;;;16.45;100.00;100566.97;5284626;28;20142;-49
2023/09/01 03:50:35;;;;;;;5.35;2.20;;;16.30;99.90;;;16.47;100.00;100574.88;5284638;28;20047;-49
2023/09/01 03:53:07;;;;;;;;;;;16.30;99.90;;;16.46;100.00;100571.38;5265223;28;20447;-49
2023/09/01 03:55:40;;;;;;;2.83;1.73;;;16.30;99.90;;;16.50;100.00;100573.16;5263302;28;20381;-49
2023/09/01 03:58:12;;;;;;;2.70;1.55;;;16.30;99.90;;;16.48;100.00;100572.25;5266626;28;20050;-49
2023/09/01 04:00:46;;;;;;;3.78;1.73;;;16.30;99.90;;;16.49;100.00;100574.00;5268109;28;20040;-47
2023/09/01 04:03:19;;;;;;;3.35;1.83;;;16.30;99.90;;;16.50;100.00;100573.16;5263345;28;20127;-48
2023/09/01 04:05:57;;;;;;;1.92;1.42;;;16.30;99.90;;;16.51;100.00;100572.28;5271832;28;20044;-48
2023/09/01 04:08:30;;;;;;;2.17;1.45;;;16.30;99.90;;;16.49;100.00;100568.75;5263277;28;20048;-49
2023/09/01 04:11:03;;;;;;;4.45;1.73;;;16.30;99.90;;;16.47;100.00;100570.50;5263053;28;20085;-49
2023/09/01 04:13:36;;;;;;;2.53;1.55;;;16.30;99.90;;;16.47;100.00;100562.59;5278048;28;20101;-48
2023/09/01 04:16:10;;;;;;;3.20;1.83;;;16.30;99.90;;;16.48;100.00;100561.72;5285330;28;20445;-49
2023/09/01 04:18:42;;;;;;;2.78;1.80;;;16.30;99.90;;;16.51;100.00;100555.63;5301125;28;20051;-50
2023/09/01 04:21:15;;;;;;;2.70;1.63;;;16.30;99.90;;;16.50;100.00;100552.13;5284417;28;20058;-49
2023/09/01 04:23:48;;;;;;;2.63;1.50;;;16.30;99.90;;;16.52;100.00;100557.38;5284030;28;20193;-48
2023/09/01 04:26:21;;;;;;;2.90;1.70;;;16.30;99.90;;;16.53;100.00;100560.00;5283909;28;20080;-48
2023/09/01 04:28:53;;;;;;;2.60;1.77;;;16.30;99.90;;;16.55;100.00;100560.88;5284260;28;20048;-49
2023/09/01 04:31:30;;;;;;;2.60;1.55;;;16.30;99.90;;;16.57;100.00;100560.06;5284014;28;20126;-49
2023/09/01 04:34:05;;;;;;;5.30;2.42;;;16.30;99.90;;;16.53;100.00;100564.41;5267080;28;20401;-49
2023/09/01 04:36:39;;;;;;;5.68;1.88;;;16.30;99.90;;;16.50;100.00;100567.03;5268875;28;20051;-49
2023/09/01 04:39:13;;;;;;;3.25;1.63;;;16.30;99.90;;;16.48;100.00;100572.25;5282534;28;20051;-49
2023/09/01 04:41:45;;;;;;;2.80;1.77;;;16.30;99.90;;;16.51;100.00;100571.41;5300637;28;20520;-48
2023/09/01 04:44:18;;;;;;;5.40;2.35;;;16.30;99.90;;;16.52;100.00;100574.03;5271551;28;20097;-50
2023/09/01 04:46:52;;;;;;;3.38;1.85;;;16.30;99.90;;;16.51;100.00;100567.03;5262787;28;20048;-48
2023/09/01 04:49:27;;;;;;;4.15;1.90;;;16.30;99.90;;;16.50;100.00;100570.53;5262747;28;20082;-49
2023/09/01 04:52:00;;;;;;;3.38;2.15;;;16.40;99.90;;;16.46;100.00;100558.22;5279639;28;20060;-48
2023/09/01 04:54:32;;;;;;;5.03;2.10;;;16.30;99.90;;;16.47;100.00;100565.22;5279264;28;20523;-49
2023/09/01 04:57:05;;;;;;;3.88;1.92;;;16.30;99.90;;;16.46;100.00;100560.84;5279666;28;20052;-50
2023/09/01 04:59:38;;;;;;;4.57;1.92;;;16.30;99.90;;;16.49;100.00;100563.47;5279876;28;20048;-49
2023/09/01 05:02:12;;;;;;;4.38;2.00;;;16.30;99.90;;;16.50;100.00;100552.13;5279393;28;20048;-48
2023/09/01 05:04:44;;;;;;;2.80;1.80;;;16.30;99.90;;;16.54;100.00;100551.25;5262857;28;20542;-48
2023/09/01 05:07:17;;;;;;;8.13;2.38;;;16.30;99.90;;;16.50;100.00;100554.75;5282515;28;20119;-48
2023/09/01 05:09:49;;;;;;;4.43;2.10;;;16.30;99.90;;;16.47;100.00;100544.19;5267686;28;20223;-49
2023/09/01 05:12:22;;;;;;;4.82;2.10;;;16.30;99.90;;;16.42;100.00;100553.78;5262409;28;20044;-49
2023/09/01 05:14:54;;;;;;;3.88;2.00;;;16.30;99.90;;;16.45;100.00;100559.09;5273889;28;20066;-49
2023/09/01 05:17:32;;;;;;;6.43;2.20;;;16.30;99.90;;;16.49;100.00;100565.22;5287401;28;20044;-48
2023/09/01 05:20:07;;;;;;;2.47;1.70;;;16.30;99.90;;;16.52;100.00;100574.03;5287597;28;20039;-50
2023/09/01 05:22:40;;;;;;;3.80;2.00;;;16.30;99.90;;;16.57;100.00;100575.84;5281093;28;20048;-49
2023/09/01 05:25:13;;;;;;;4.78;2.00;;;16.40;99.90;;;16.58;100.00;100573.22;5276920;28;20043;-49
2023/09/01 05:27:48;;;;;;;3.42;2.15;;;16.40;99.90;;;16.63;100.00;100566.22;5287267;28;20424;-49
2023/09/01 05:30:21;;;;;;;3.60;2.22;;;16.40;99.90;;;16.66;100.00;100576.75;5287100;28;20397;-49
2023/09/01 05:32:54;;;;;;;3.00;1.60;;;16.40;99.90;;;16.69;100.00;100581.16;5304141;27;20134;-49
2023/09/01 05:35:27;;;;;;;4.50;2.30;;;16.50;99.90;;;16.74;100.00;100574.22;5278575;28;20146;-48
2023/09/01 05:37:59;;;;;;;2.78;1.77;;;16.50;99.90;;;16.72;100.00;100571.56;5278428;28;20039;-49
2023/09/01 05:40:32;;;;;;;2.47;1.80;;;16.50;99.90;;;16.73;100.00;100577.72;5273521;28;20048;-48
2023/09/01 05:43:04;;;;;;;3.72;2.55;;;16.50;99.90;;;16.77;100.00;100579.50;5265658;28;20417;-47
2023/09/01 05:45:37;;;;;;;3.53;1.92;;;16.50;99.90;;;16.78;100.00;100576.88;5265867;28;20040;-49
2023/09/01 05:48:11;;;;;;;3.03;1.70;;;16.60;99.90;;;16.78;100.00;100565.47;5277214;28;20043;-48
2023/09/01 05:50:44;;;;;;;2.08;1.48;;;16.50;99.90;;;16.77;100.00;100559.31;5286762;28;20366;-48
2023/09/01 05:53:20;;;;;;;3.67;1.60;;;16.60;99.90;;;16.73;100.00;100552.28;5283662;28;20049;-48
2023/09/01 05:55:52;;;;;;;4.50;1.70;;;16.60;99.90;;;16.72;100.00;100561.03;5265503;28;20068;-48
2023/09/01 05:58:25;;;;;;;3.20;1.83;;;16.50;99.90;;;16.73;100.00;100557.53;5269251;28;20039;-48
2023/09/01 06:00:57;;;;;;;3.13;1.73;;;16.60;99.90;;;16.75;100.00;100566.31;5286775;28;20100;-49
2023/09/01 06:03:31;;;;;;;3.30;1.85;;;16.60;99.90;;;16.80;100.00;100558.44;5269759;28;20400;-49
2023/09/01 06:06:03;;;;;;;2.25;1.50;;;16.60;99.90;;;16.87;100.00;100565.50;5286048;28;20036;-47
2023/09/01 06:08:36;;;;;;;3.15;1.70;;;16.60;99.90;;;16.93;100.00;100565.53;5278759;28;20039;-48
2023/09/01 06:11:09;;;;;;;2.95;1.50;;;16.70;99.90;;;16.97;100.00;100572.59;5286144;28;20058;-47
2023/09/01 06:13:42;;;;;;;3.55;1.65;;;16.70;99.90;;;16.98;100.00;100573.47;5303310;27;20044;-49
2023/09/01 06:16:14;;;;;;;2.03;1.27;;;16.70;99.90;;;17.00;100.00;100572.59;5286215;28;20039;-48
2023/09/01 06:18:48;;;;;;;2.78;1.45;;;16.80;99.90;;;17.06;100.00;100577.91;5279701;28;20040;-47
2023/09/01 06:21:20;;;;;;;2.60;1.55;;;16.80;99.90;;;17.15;100.00;100581.44;5265202;28;20059;-48
2023/09/01 06:23:56;;;;;;;1.75;1.20;;;16.90;99.90;;;17.22;100.00;100585.88;5264215;28;20060;-48
2023/09/01 06:26:28;;;;;;;2.00;1.60;;;16.90;99.90;;;17.20;100.00;100571.81;5264855;28;20043;-48
2023/09/01 06:29:00;;;;;;;3.13;1.38;;;17.00;99.90;;;17.21;100.00;100582.34;5264725;28;20059;-47
2023/09/01 06:31:36;;;;;;;2.50;1.35;;;17.00;99.90;;;17.21;100.00;100581.47;5281998;28;20052;-47
2023/09/01 06:34:10;;;;;;;1.73;1.35;;;17.00;99.90;;;17.20;100.00;100582.34;5264552;28;20139;-47
2023/09/01 06:36:42;;;;;;;2.75;1.40;;;17.00;99.90;;;17.24;100.00;100578.88;5264857;28;20504;-48
2023/09/01 06:39:16;;;;;;;1.90;1.42;;;17.00;99.90;;;17.26;100.00;100580.63;5283338;28;20044;-48
2023/09/01 06:41:51;;;;;;;2.50;1.20;;;17.00;99.90;;;17.45;100.00;100581.56;5277244;28;20058;-48
2023/09/01 06:44:24;;;;;;;2.42;1.30;;;17.20;99.90;;;17.70;100.00;100579.00;5274294;28;20048;-48
2023/09/01 06:46:56;;;;;;;1.58;1.48;;;17.40;99.90;;;17.85;100.00;100582.59;5272176;28;20412;-48
2023/09/01 06:49:30;;;;;;;1.88;1.05;;;17.60;99.90;;;18.00;100.00;100592.31;5285465;28;20042;-48
2023/09/01 06:52:02;;;;;;;1.73;1.17;;;17.70;99.90;;;18.12;100.00;100592.28;5285243;28;20052;-49
2023/09/01 06:54:35;;;;;;;1.70;1.00;;;17.90;99.90;;;18.16;100.00;100593.19;5275955;28;20043;-53
2023/09/01 06:57:07;;;;;;;3.35;1.30;;;18.00;99.90;;;18.29;100.00;100607.25;5283139;28;20047;-50
2023/09/01 06:59:39;;;;;;;1.58;1.20;;;18.10;99.90;;;18.38;100.00;100608.13;5283826;28;20048;-50
2023/09/01 07:02:12;;;;;;;3.45;1.40;;;18.20;99.90;;;18.38;100.00;100610.75;5283736;28;20048;-50
2023/09/01 07:04:45;;;;;;;3.08;1.40;;;18.20;99.90;;;18.38;100.00;100616.03;5283987;28;20055;-51
2023/09/01 07:07:18;;;;;;;3.45;1.20;;;18.20;99.90;;;18.46;100.00;100613.44;5280160;28;20050;-54
2023/09/01 07:09:54;;;;;;;3.60;1.40;;;18.30;99.90;;;18.49;100.00;100616.06;5283360;28;20140;-49
2023/09/01 07:12:26;;;;;;;3.85;1.35;;;18.30;99.90;;;18.40;100.00;100592.31;5283841;28;20130;-49
2023/09/01 07:14:58;;;;;;;2.40;1.52;;;18.20;99.90;;;18.21;100.00;100578.25;5283440;28;20381;-48
2023/09/01 07:17:31;;;;;;;2.58;1.23;;;18.10;99.90;;;18.06;100.00;100580.84;5281959;28;20055;-50
2023/09/01 07:20:06;;;;;;;1.63;1.30;;;18.00;99.90;;;17.93;100.00;100582.63;5283107;28;20108;-50
2023/09/01 07:22:38;;;;;;;1.90;1.33;;;17.80;99.90;;;17.84;100.00;100585.22;5291745;27;20051;-49
2023/09/01 07:25:13;;;;;;;3.30;1.60;;;17.70;99.90;;;17.77;100.00;100594.00;5281282;28;20055;-48
2023/09/01 07:27:48;;;;;;;1.73;1.30;;;17.60;99.90;;;17.70;100.00;100592.19;5281095;28;20043;-48
2023/09/01 07:30:20;;;;;;;1.67;1.02;;;17.50;99.90;;;17.63;100.00;100591.31;5283344;28;20074;-49
2023/09/01 07:32:53;;;;;;;1.25;1.10;;;17.50;99.90;;;17.57;100.00;100589.53;5284064;28;20036;-49
2023/09/01 07:35:27;;;;;;;2.20;1.50;;;17.40;99.90;;;17.50;100.00;100589.50;5282824;28;20049;-48
2023/09/01 07:37:59;;;;;;;3.53;1.40;;;17.40;99.90;;;17.41;100.00;100590.38;5283318;28;20054;-49
2023/09/01 07:40:33;;;;;;;2.10;1.27;;;17.30;99.90;;;17.37;100.00;100593.84;5283285;28;20069;-48
2023/09/01 07:43:05;;;;;;;1.92;1.33;;;17.20;99.90;;;17.31;100.00;100588.56;5283575;28;20063;-48
2023/09/01 07:45:39;;;;;;;1.95;1.60;;;17.20;99.90;;;17.28;100.00;100591.19;5275774;28;20428;-49
2023/09/01 07:48:11;;;;;;;2.53;1.35;;;17.10;99.90;;;17.29;100.00;100595.56;5282823;28;20457;-48
2023/09/01 07:50:46;;;;;;;2.47;1.33;;;17.10;99.90;;;17.31;100.00;100599.97;5283444;28;20048;-50
2023/09/01 07:53:18;;;;;;;1.85;1.15;;;17.10;99.90;;;17.33;100.00;100592.06;5282747;28;20488;-49
2023/09/01 07:55:54;;;;;;;1.73;1.00;;;17.10;99.90;;;17.35;100.00;100606.16;5282816;28;20051;-49
2023/09/01 07:58:27;;;;;;;1.88;1.23;;;17.10;99.90;;;17.36;100.00;100608.78;5266534;28;20051;-49
2023/09/01 08:00:59;;;;;;;2.75;1.25;;;17.10;99.90;;;17.39;100.00;100613.16;5283579;28;20039;-49
2023/09/01 08:03:33;;;;;;;1.33;1.08;;;17.20;99.90;;;17.41;100.00;100611.44;5283174;28;20039;-49
2023/09/01 08:06:07;;;;;;;3.10;1.05;;;17.10;99.90;;;17.41;100.00;100606.16;5282722;28;20062;-50
2023/09/01 08:08:39;;;;;;;1.65;0.93;;;17.20;99.90;;;17.39;100.00;100596.47;5283960;28;20036;-50
2023/09/01 08:11:11;;;;;;;1.60;1.20;;;17.10;99.90;;;17.39;100.00;100612.28;5284619;28;20492;-49
2023/09/01 08:13:47;;;;;;;2.88;1.42;;;17.10;99.90;;;17.34;100.00;100607.00;5283758;28;20051;-49
2023/09/01 08:16:20;;;;;;;2.00;1.40;;;17.10;99.90;;;17.32;100.00;100606.13;5282326;28;20047;-49
2023/09/01 08:18:53;;;;;;;1.92;1.40;;;17.10;99.90;;;17.29;100.00;100600.84;5283181;28;20040;-49
2023/09/01 08:21:26;;;;;;;3.30;1.25;;;17.10;99.90;;;17.22;100.00;100605.22;5282664;28;20055;-49
2023/09/01 08:24:02;;;;;;;1.58;1.10;;;17.10;99.90;;;17.22;100.00;100610.47;5283240;28;20046;-48
2023/09/01 08:26:35;;;;;;;2.33;1.30;;;17.10;99.90;;;17.20;100.00;100609.56;5282737;28;20039;-49
2023/09/01 08:29:08;;;;;;;2.47;1.50;;;17.00;99.90;;;17.20;100.00;100601.66;5283732;28;20036;-50
2023/09/01 08:31:40;;;;;;;1.52;1.30;;;17.00;99.90;;;17.24;100.00;100607.84;5283573;28;20382;-50
2023/09/01 08:34:13;;;;;;;1.50;0.98;;;17.00;99.90;;;17.28;100.00;100607.88;5283002;28;20047;-49
2023/09/01 08:36:46;;;;;;;1.58;0.88;;;17.10;99.90;;;17.35;100.00;100617.56;5282558;28;20336;-49
2023/09/01 08:39:19;;;;;;;1.02;0.90;;;17.10;99.90;;;17.43;100.00;100608.81;5282672;28;20048;-49
2023/09/01 08:41:54;;;;;;;1.95;1.15;;;17.20;99.90;;;17.49;100.00;100609.72;5283071;28;20122;-49
2023/09/01 08:44:28;;;;;;;2.30;1.08;;;17.20;99.90;;;17.53;100.00;100611.47;5282393;28;20043;-49
2023/09/01 08:47:01;;;;;;;1.45;1.13;;;17.30;99.90;;;17.56;100.00;100613.25;5282501;28;20043;-49
2023/09/01 08:49:34;;;;;;;2.00;1.17;;;17.30;99.90;;;17.56;100.00;100611.50;5286534;28;20043;-50
2023/09/01 08:52:08;;;;;;;1.80;1.10;;;17.30;99.90;;;17.59;100.00;100611.47;5286956;28;20508;-48
2023/09/01 08:54:41;;;;;;;1.38;1.00;;;17.40;99.90;;;17.64;100.00;100615.03;5288117;28;20043;-49
2023/09/01 08:57:13;;;;;;;1.98;1.20;;;17.40;99.90;;;17.71;100.00;100604.50;5286205;28;20089;-48
2023/09/01 08:59:46;;;;;;;2.40;1.45;;;17.40;99.90;;;17.79;100.00;100602.78;5286789;28;20419;-50
2023/09/01 09:02:18;;;;;;;1.10;1.00;;;17.50;99.90;;;17.85;100.00;100608.06;5286437;28;20044;-49
2023/09/01 09:04:51;;;;;;;1.63;1.10;;;17.50;99.90;;;17.87;100.00;100611.63;5286682;28;20065;-47
2023/09/01 09:07:25;;;;;;;1.63;1.20;;;17.60;99.90;;;17.92;100.00;100609.84;5286279;28;20389;-49
2023/09/01 09:09:59;;;;;;;2.33;1.13;;;17.60;99.90;;;17.98;100.00;100609.84;5286714;28;20046;-49
2023/09/01 09:12:37;;;;;;;1.58;1.00;;;17.70;99.90;;;18.09;100.00;100617.78;5286221;28;20051;-49
2023/09/01 09:15:16;;;;;;;1.23;0.90;;;17.70;99.90;;;18.17;100.00;100616.91;5286332;28;20048;-49
2023/09/01 09:17:49;;;;;;;2.15;1.27;;;17.80;99.90;;;18.24;100.00;100609.88;5285876;28;20469;-49
2023/09/01 09:20:22;;;;;;;2.10;1.02;;;17.90;99.90;;;18.31;100.00;100613.41;5285841;28;20058;-49
2023/09/01 09:22:59;;;;;;;1.38;1.00;;;18.00;99.90;;;18.36;100.00;100617.81;5286540;28;20142;-48
2023/09/01 09:25:33;;;;;;;1.55;0.93;;;18.00;99.90;;;18.46;100.00;100618.72;5286146;28;20043;-50
2023/09/01 09:28:13;;;;;;;0.80;0.80;;;18.10;99.90;;;18.52;100.00;100616.06;5286002;28;20124;-50
2023/09/01 09:30:50;;;;;;;1.58;1.00;;;18.10;99.90;;;18.64;100.00;100612.50;5278268;28;20055;-49
2023/09/01 09:33:28;;;;;;;2.15;1.48;;;18.30;99.90;;;18.75;100.00;100623.09;5285551;28;20128;-48
2023/09/01 09:36:04;;;;;;;1.27;0.80;;;18.30;99.90;;;18.77;100.00;100623.97;5285824;28;20093;-49
2023/09/01 09:38:43;;;;;;;1.23;1.08;;;18.40;99.90;;;18.77;100.00;100618.69;5285779;28;20051;-49
2023/09/01 09:41:15;;;;;;;2.22;1.20;;;18.40;99.90;;;18.79;100.00;100617.81;5286193;28;20126;-50
2023/09/01 09:43:50;;;;;;;1.33;1.00;;;18.50;99.90;;;18.80;100.00;100608.13;5285917;28;20766;-49
2023/09/01 09:46:41;;;;;;;1.63;1.27;;;18.50;99.90;;;18.81;100.00;100615.19;5285004;28;20513;-49
2023/09/01 09:49:16;;;;;;;1.50;0.95;;;18.50;99.90;;;18.82;100.00;100616.94;5286053;28;20066;-49
2023/09/01 09:51:51;;;;;;;0.95;0.80;;;18.50;99.90;;;18.80;100.00;100621.34;5278004;28;20085;-49
2023/09/01 09:54:25;;;;;;;1.00;0.90;;;18.50;99.90;;;18.76;100.00;100615.19;5285747;28;20051;-49
2023/09/01 09:57:03;;;;;;;1.70;1.10;;;18.50;99.90;;;18.76;100.00;100619.56;5285510;28;20147;-49
2023/09/01 09:59:43;;;;;;;1.50;1.08;;;18.50;99.90;;;18.69;100.00;100622.22;5284748;28;20493;-49
2023/09/01 10:02:24;;;;;;;1.95;1.02;;;18.40;99.90;;;18.64;100.00;100623.06;5285518;28;20044;-49
2023/09/01 10:04:58;;;;;;;1.10;1.00;;;18.40;99.90;;;18.60;100.00;100624.84;5285570;28;20127;-49
2023/09/01 10:07:32;;;;;;;1.55;1.10;;;18.30;99.90;;;18.62;100.00;100623.09;5284469;28;20063;-49
2023/09/01 10:10:08;;;;;;;1.60;0.90;;;18.30;99.90;;;18.66;100.00;100622.25;5285498;28;20043;-49
2023/09/01 10:12:41;;;;;;;1.13;0.80;;;18.40;99.90;;;18.74;100.00;100624.00;5285160;28;20047;-50
2023/09/01 10:15:16;;;;;;;1.00;0.90;;;18.40;99.90;;;18.78;100.00;100620.44;5285691;28;20053;-48
2023/09/01 10:17:49;;;;;;;2.20;1.10;;;18.50;99.90;;;18.83;100.00;100629.25;5284975;28;20539;-50
2023/09/01 10:20:21;;;;;;;1.33;1.02;;;18.50;99.90;;;18.85;100.00;100622.22;5284739;28;20096;-50
2023/09/01 10:22:54;;;;;;;2.17;1.42;;;18.50;99.90;;;18.88;100.00;100623.09;5285442;28;20504;-49
2023/09/01 10:25:29;;;;;;;3.70;1.63;;;18.60;99.90;;;18.86;100.00;100622.22;5285931;28;20448;-49
2023/09/01 10:28:07;;;;;;;2.17;1.27;;;18.50;99.90;;;18.84;100.00;100620.44;5284907;28;20179;-50
2023/09/01 10:30:41;;;;;;;1.67;1.33;;;18.50;99.90;;;18.82;100.00;100624.84;5284358;28;20070;-50
2023/09/01 10:33:17;;;;;;;1.10;1.00;;;18.50;99.90;;;18.78;100.00;100623.09;5285209;28;20555;-50
2023/09/01 10:35:51;;;;;;;2.22;1.45;;;18.50;99.90;;;18.78;100.00;100623.09;5283946;28;20043;-49
2023/09/01 10:38:36;;;;;;;2.03;1.45;;;18.50;99.90;;;18.76;100.00;100619.56;5284351;28;20389;-49
2023/09/01 10:41:10;;;;;;;1.95;1.20;;;18.50;99.90;;;18.79;100.00;100627.50;5285075;28;20044;-51
2023/09/01 10:43:56;;;;;;;1.58;1.02;;;18.50;99.90;;;18.83;100.00;100630.13;5283960;28;20053;-50
2023/09/01 10:46:28;;;;;;;2.17;1.30;;;18.50;99.90;;;18.90;100.00;100631.00;5283809;28;20066;-51